sensor_id;sensor_type;location;lat;lon;timestamp;P1;durP1;ratioP1;P2;durP2;ratioP2
12577;SDS011;6354;51.026;8.968;2023-03-23T00:02:19;1999.90;;;697.07;;
12577;SDS011;6354;51.026;8.968;2023-03-23T00:04:50;1727.67;;;350.57;;
12577;SDS011;6354;51.026;8.968;2023-03-23T00:07:18;1999.90;;;576.23;;
12577;SDS011;6354;51.026;8.968;2023-03-23T00:09:46;1999.90;;;446.40;;
12577;SDS011;6354;51.026;8.968;2023-03-23T00:12:18;1893.57;;;427.40;;
12577;SDS011;6354;51.026;8.968;2023-03-23T00:14:48;1999.90;;;481.07;;
12577;SDS011;6354;51.026;8.968;2023-03-23T00:17:19;1999.90;;;601.50;;
12577;SDS011;6354;51.026;8.968;2023-03-23T00:19:46;1648.13;;;326.07;;
12577;SDS011;6354;51.026;8.968;2023-03-23T00:22:13;736.40;;;167.97;;
12577;SDS011;6354;51.026;8.968;2023-03-23T00:24:42;1999.90;;;452.47;;
12577;SDS011;6354;51.026;8.968;2023-03-23T00:27:10;1889.17;;;417.67;;
12577;SDS011;6354;51.026;8.968;2023-03-23T00:29:39;1747.87;;;377.57;;
12577;SDS011;6354;51.026;8.968;2023-03-23T00:32:08;1999.90;;;497.83;;
12577;SDS011;6354;51.026;8.968;2023-03-23T00:34:37;1999.90;;;756.67;;
12577;SDS011;6354;51.026;8.968;2023-03-23T00:37:05;1999.90;;;427.57;;
12577;SDS011;6354;51.026;8.968;2023-03-23T00:39:33;1999.90;;;556.80;;
12577;SDS011;6354;51.026;8.968;2023-03-23T00:42:02;1999.90;;;663.03;;
12577;SDS011;6354;51.026;8.968;2023-03-23T00:44:30;1999.90;;;490.30;;
12577;SDS011;6354;51.026;8.968;2023-03-23T00:47:00;1379.73;;;283.93;;
12577;SDS011;6354;51.026;8.968;2023-03-23T00:49:28;1999.90;;;832.93;;
12577;SDS011;6354;51.026;8.968;2023-03-23T00:51:56;1999.90;;;533.63;;
12577;SDS011;6354;51.026;8.968;2023-03-23T00:54:24;1999.90;;;641.20;;
12577;SDS011;6354;51.026;8.968;2023-03-23T00:56:51;1999.90;;;500.77;;
12577;SDS011;6354;51.026;8.968;2023-03-23T00:59:19;1675.13;;;287.00;;
12577;SDS011;6354;51.026;8.968;2023-03-23T01:01:47;1999.90;;;876.90;;
12577;SDS011;6354;51.026;8.968;2023-03-23T01:04:15;1999.90;;;624.13;;
12577;SDS011;6354;51.026;8.968;2023-03-23T01:06:44;1999.90;;;770.27;;
12577;SDS011;6354;51.026;8.968;2023-03-23T01:09:16;1999.90;;;450.80;;
12577;SDS011;6354;51.026;8.968;2023-03-23T01:11:44;1999.90;;;896.60;;
12577;SDS011;6354;51.026;8.968;2023-03-23T01:14:12;1999.90;;;755.77;;
12577;SDS011;6354;51.026;8.968;2023-03-23T01:16:40;1999.90;;;379.40;;
12577;SDS011;6354;51.026;8.968;2023-03-23T01:19:07;1999.90;;;402.27;;
12577;SDS011;6354;51.026;8.968;2023-03-23T01:21:35;1999.90;;;584.70;;
12577;SDS011;6354;51.026;8.968;2023-03-23T01:24:04;1999.90;;;492.80;;
12577;SDS011;6354;51.026;8.968;2023-03-23T01:26:31;1999.90;;;466.93;;
12577;SDS011;6354;51.026;8.968;2023-03-23T01:28:58;1999.90;;;584.27;;
12577;SDS011;6354;51.026;8.968;2023-03-23T01:31:25;1216.60;;;341.10;;
12577;SDS011;6354;51.026;8.968;2023-03-23T01:33:52;1999.90;;;764.43;;
12577;SDS011;6354;51.026;8.968;2023-03-23T01:36:22;1821.33;;;334.30;;
12577;SDS011;6354;51.026;8.968;2023-03-23T01:38:50;1999.90;;;762.83;;
12577;SDS011;6354;51.026;8.968;2023-03-23T01:41:19;1999.90;;;674.43;;
12577;SDS011;6354;51.026;8.968;2023-03-23T01:43:53;1999.90;;;926.37;;
12577;SDS011;6354;51.026;8.968;2023-03-23T01:46:25;1999.90;;;942.57;;
12577;SDS011;6354;51.026;8.968;2023-03-23T01:48:52;1999.90;;;920.40;;
12577;SDS011;6354;51.026;8.968;2023-03-23T01:51:20;1999.90;;;423.57;;
12577;SDS011;6354;51.026;8.968;2023-03-23T01:53:49;1999.90;;;389.27;;
12577;SDS011;6354;51.026;8.968;2023-03-23T01:56:23;1999.90;;;968.87;;
12577;SDS011;6354;51.026;8.968;2023-03-23T01:58:52;1999.90;;;742.13;;
12577;SDS011;6354;51.026;8.968;2023-03-23T02:01:20;1999.90;;;541.47;;
12577;SDS011;6354;51.026;8.968;2023-03-23T02:03:50;1999.90;;;692.33;;
12577;SDS011;6354;51.026;8.968;2023-03-23T02:06:19;1999.90;;;436.43;;
12577;SDS011;6354;51.026;8.968;2023-03-23T02:08:46;1999.90;;;599.43;;
12577;SDS011;6354;51.026;8.968;2023-03-23T02:11:15;1817.63;;;279.80;;
12577;SDS011;6354;51.026;8.968;2023-03-23T02:13:45;1999.90;;;519.77;;
12577;SDS011;6354;51.026;8.968;2023-03-23T02:16:14;1999.90;;;691.13;;
12577;SDS011;6354;51.026;8.968;2023-03-23T02:18:50;1999.90;;;761.87;;
12577;SDS011;6354;51.026;8.968;2023-03-23T02:21:44;1999.90;;;429.60;;
12577;SDS011;6354;51.026;8.968;2023-03-23T02:24:57;1999.90;;;727.97;;
12577;SDS011;6354;51.026;8.968;2023-03-23T02:27:45;1999.90;;;683.50;;
12577;SDS011;6354;51.026;8.968;2023-03-23T02:30:43;1999.90;;;544.37;;
12577;SDS011;6354;51.026;8.968;2023-03-23T02:33:31;1999.90;;;605.73;;
12577;SDS011;6354;51.026;8.968;2023-03-23T02:36:05;1902.03;;;304.80;;
12577;SDS011;6354;51.026;8.968;2023-03-23T02:38:42;1999.90;;;869.20;;
12577;SDS011;6354;51.026;8.968;2023-03-23T02:41:16;1993.90;;;285.27;;
12577;SDS011;6354;51.026;8.968;2023-03-23T02:43:45;1999.90;;;528.73;;
12577;SDS011;6354;51.026;8.968;2023-03-23T02:46:14;1999.90;;;619.77;;
12577;SDS011;6354;51.026;8.968;2023-03-23T02:48:43;1389.37;;;216.50;;
12577;SDS011;6354;51.026;8.968;2023-03-23T02:51:13;1999.90;;;477.60;;
12577;SDS011;6354;51.026;8.968;2023-03-23T02:53:42;1999.90;;;585.87;;
12577;SDS011;6354;51.026;8.968;2023-03-23T02:56:10;1999.90;;;456.67;;
12577;SDS011;6354;51.026;8.968;2023-03-23T02:58:38;1999.90;;;610.00;;
12577;SDS011;6354;51.026;8.968;2023-03-23T03:01:16;1999.90;;;365.87;;
12577;SDS011;6354;51.026;8.968;2023-03-23T03:04:18;1703.87;;;256.47;;
12577;SDS011;6354;51.026;8.968;2023-03-23T03:06:48;1999.90;;;581.57;;
12577;SDS011;6354;51.026;8.968;2023-03-23T03:09:26;1999.90;;;549.30;;
12577;SDS011;6354;51.026;8.968;2023-03-23T03:12:02;1999.90;;;309.60;;
12577;SDS011;6354;51.026;8.968;2023-03-23T03:14:36;1999.90;;;431.80;;
12577;SDS011;6354;51.026;8.968;2023-03-23T03:17:06;1999.90;;;393.77;;
12577;SDS011;6354;51.026;8.968;2023-03-23T03:19:42;1999.90;;;546.83;;
12577;SDS011;6354;51.026;8.968;2023-03-23T03:22:13;1463.90;;;151.70;;
12577;SDS011;6354;51.026;8.968;2023-03-23T03:24:41;1290.13;;;174.70;;
12577;SDS011;6354;51.026;8.968;2023-03-23T03:27:10;1999.90;;;268.93;;
12577;SDS011;6354;51.026;8.968;2023-03-23T03:29:42;1227.20;;;179.00;;
12577;SDS011;6354;51.026;8.968;2023-03-23T03:32:13;1999.90;;;465.60;;
12577;SDS011;6354;51.026;8.968;2023-03-23T03:34:45;1999.90;;;387.60;;
12577;SDS011;6354;51.026;8.968;2023-03-23T03:37:12;1999.90;;;356.20;;
12577;SDS011;6354;51.026;8.968;2023-03-23T03:39:41;1925.03;;;260.63;;
12577;SDS011;6354;51.026;8.968;2023-03-23T03:42:07;1900.43;;;227.10;;
12577;SDS011;6354;51.026;8.968;2023-03-23T03:44:35;1999.90;;;499.60;;
12577;SDS011;6354;51.026;8.968;2023-03-23T03:47:02;1747.97;;;176.70;;
12577;SDS011;6354;51.026;8.968;2023-03-23T03:49:29;1676.93;;;164.40;;
12577;SDS011;6354;51.026;8.968;2023-03-23T03:51:58;702.13;;;75.27;;
12577;SDS011;6354;51.026;8.968;2023-03-23T03:54:25;1186.70;;;155.10;;
12577;SDS011;6354;51.026;8.968;2023-03-23T03:56:52;1389.00;;;171.00;;
12577;SDS011;6354;51.026;8.968;2023-03-23T03:59:23;1228.23;;;152.97;;
12577;SDS011;6354;51.026;8.968;2023-03-23T04:01:50;1586.33;;;184.23;;
12577;SDS011;6354;51.026;8.968;2023-03-23T04:04:19;998.47;;;136.40;;
12577;SDS011;6354;51.026;8.968;2023-03-23T04:06:47;917.57;;;121.77;;
12577;SDS011;6354;51.026;8.968;2023-03-23T04:09:16;747.53;;;89.77;;
12577;SDS011;6354;51.026;8.968;2023-03-23T04:11:44;1038.87;;;126.77;;
12577;SDS011;6354;51.026;8.968;2023-03-23T04:14:11;783.60;;;111.57;;
12577;SDS011;6354;51.026;8.968;2023-03-23T04:16:38;1999.90;;;240.57;;
12577;SDS011;6354;51.026;8.968;2023-03-23T04:19:05;1190.57;;;162.30;;
12577;SDS011;6354;51.026;8.968;2023-03-23T04:21:33;1758.33;;;193.67;;
12577;SDS011;6354;51.026;8.968;2023-03-23T04:24:00;1999.90;;;249.13;;
12577;SDS011;6354;51.026;8.968;2023-03-23T04:26:29;977.30;;;139.33;;
12577;SDS011;6354;51.026;8.968;2023-03-23T04:28:57;1999.90;;;276.47;;
12577;SDS011;6354;51.026;8.968;2023-03-23T04:31:24;1999.90;;;360.50;;
12577;SDS011;6354;51.026;8.968;2023-03-23T04:33:52;1999.90;;;396.77;;
12577;SDS011;6354;51.026;8.968;2023-03-23T04:36:19;1718.43;;;196.10;;
12577;SDS011;6354;51.026;8.968;2023-03-23T04:38:47;875.80;;;137.70;;
12577;SDS011;6354;51.026;8.968;2023-03-23T04:41:19;1885.93;;;218.67;;
12577;SDS011;6354;51.026;8.968;2023-03-23T04:43:48;1599.10;;;252.37;;
12577;SDS011;6354;51.026;8.968;2023-03-23T04:46:18;1103.47;;;151.47;;
12577;SDS011;6354;51.026;8.968;2023-03-23T04:48:46;1950.83;;;218.57;;
12577;SDS011;6354;51.026;8.968;2023-03-23T04:51:13;1783.33;;;237.17;;
12577;SDS011;6354;51.026;8.968;2023-03-23T04:53:40;618.50;;;69.40;;
12577;SDS011;6354;51.026;8.968;2023-03-23T04:56:07;1999.90;;;321.20;;
12577;SDS011;6354;51.026;8.968;2023-03-23T04:58:34;568.43;;;82.17;;
12577;SDS011;6354;51.026;8.968;2023-03-23T05:01:03;1999.90;;;331.80;;
12577;SDS011;6354;51.026;8.968;2023-03-23T05:03:30;1098.67;;;136.50;;
12577;SDS011;6354;51.026;8.968;2023-03-23T05:05:57;1732.93;;;211.13;;
12577;SDS011;6354;51.026;8.968;2023-03-23T05:08:27;434.40;;;50.50;;
12577;SDS011;6354;51.026;8.968;2023-03-23T05:10:54;1371.47;;;140.97;;
12577;SDS011;6354;51.026;8.968;2023-03-23T05:13:23;1648.20;;;151.83;;
12577;SDS011;6354;51.026;8.968;2023-03-23T05:15:50;1612.03;;;195.43;;
12577;SDS011;6354;51.026;8.968;2023-03-23T05:18:18;1436.47;;;173.27;;
12577;SDS011;6354;51.026;8.968;2023-03-23T05:20:46;674.10;;;88.33;;
12577;SDS011;6354;51.026;8.968;2023-03-23T05:23:14;304.93;;;49.37;;
12577;SDS011;6354;51.026;8.968;2023-03-23T05:25:41;1999.90;;;270.27;;
12577;SDS011;6354;51.026;8.968;2023-03-23T05:28:08;801.90;;;119.07;;
12577;SDS011;6354;51.026;8.968;2023-03-23T05:30:37;1999.90;;;304.57;;
12577;SDS011;6354;51.026;8.968;2023-03-23T05:33:05;929.77;;;114.60;;
12577;SDS011;6354;51.026;8.968;2023-03-23T05:35:33;1999.90;;;424.13;;
12577;SDS011;6354;51.026;8.968;2023-03-23T05:38:01;1669.87;;;172.43;;
12577;SDS011;6354;51.026;8.968;2023-03-23T05:40:28;843.23;;;112.00;;
12577;SDS011;6354;51.026;8.968;2023-03-23T05:42:55;1646.63;;;213.53;;
12577;SDS011;6354;51.026;8.968;2023-03-23T05:45:24;1481.33;;;155.30;;
12577;SDS011;6354;51.026;8.968;2023-03-23T05:47:51;615.97;;;78.77;;
12577;SDS011;6354;51.026;8.968;2023-03-23T05:50:18;1204.73;;;144.37;;
12577;SDS011;6354;51.026;8.968;2023-03-23T05:52:47;455.27;;;58.90;;
12577;SDS011;6354;51.026;8.968;2023-03-23T05:55:14;1489.10;;;168.93;;
12577;SDS011;6354;51.026;8.968;2023-03-23T05:57:40;1999.90;;;271.17;;
12577;SDS011;6354;51.026;8.968;2023-03-23T06:00:08;1441.33;;;130.37;;
12577;SDS011;6354;51.026;8.968;2023-03-23T06:02:45;1999.90;;;275.57;;
12577;SDS011;6354;51.026;8.968;2023-03-23T06:05:13;1999.90;;;443.63;;
12577;SDS011;6354;51.026;8.968;2023-03-23T06:07:41;1936.10;;;285.37;;
12577;SDS011;6354;51.026;8.968;2023-03-23T06:10:09;885.07;;;108.53;;
12577;SDS011;6354;51.026;8.968;2023-03-23T06:12:37;1999.90;;;253.07;;
12577;SDS011;6354;51.026;8.968;2023-03-23T06:15:05;1999.90;;;253.83;;
12577;SDS011;6354;51.026;8.968;2023-03-23T06:17:33;779.37;;;78.63;;
12577;SDS011;6354;51.026;8.968;2023-03-23T06:20:01;1191.37;;;143.30;;
12577;SDS011;6354;51.026;8.968;2023-03-23T06:22:34;1253.00;;;152.80;;
12577;SDS011;6354;51.026;8.968;2023-03-23T06:25:03;1252.17;;;144.47;;
12577;SDS011;6354;51.026;8.968;2023-03-23T06:27:32;1931.47;;;223.60;;
12577;SDS011;6354;51.026;8.968;2023-03-23T06:30:00;1999.90;;;264.63;;
12577;SDS011;6354;51.026;8.968;2023-03-23T06:32:28;1579.00;;;166.93;;
12577;SDS011;6354;51.026;8.968;2023-03-23T06:34:57;1490.80;;;158.43;;
12577;SDS011;6354;51.026;8.968;2023-03-23T06:37:24;1520.20;;;207.67;;
12577;SDS011;6354;51.026;8.968;2023-03-23T06:39:51;1748.17;;;198.37;;
12577;SDS011;6354;51.026;8.968;2023-03-23T06:42:19;1999.90;;;358.33;;
12577;SDS011;6354;51.026;8.968;2023-03-23T06:44:47;1756.10;;;195.37;;
12577;SDS011;6354;51.026;8.968;2023-03-23T06:47:14;1999.90;;;312.93;;
12577;SDS011;6354;51.026;8.968;2023-03-23T06:49:41;1999.90;;;317.20;;
12577;SDS011;6354;51.026;8.968;2023-03-23T06:52:08;1577.90;;;199.63;;
12577;SDS011;6354;51.026;8.968;2023-03-23T06:54:35;1604.43;;;235.43;;
12577;SDS011;6354;51.026;8.968;2023-03-23T06:57:02;166.03;;;35.20;;
12577;SDS011;6354;51.026;8.968;2023-03-23T06:59:29;1958.50;;;265.83;;
12577;SDS011;6354;51.026;8.968;2023-03-23T07:01:57;1999.90;;;284.30;;
12577;SDS011;6354;51.026;8.968;2023-03-23T07:04:24;1931.77;;;245.73;;
12577;SDS011;6354;51.026;8.968;2023-03-23T07:06:51;1999.90;;;401.17;;
12577;SDS011;6354;51.026;8.968;2023-03-23T07:09:18;1999.90;;;233.63;;
12577;SDS011;6354;51.026;8.968;2023-03-23T07:11:45;1999.90;;;300.50;;
12577;SDS011;6354;51.026;8.968;2023-03-23T07:14:13;1999.90;;;389.87;;
12577;SDS011;6354;51.026;8.968;2023-03-23T07:16:40;1999.90;;;359.63;;
12577;SDS011;6354;51.026;8.968;2023-03-23T07:19:09;1896.33;;;233.77;;
12577;SDS011;6354;51.026;8.968;2023-03-23T07:21:36;1999.90;;;261.03;;
12577;SDS011;6354;51.026;8.968;2023-03-23T07:24:03;1854.63;;;196.73;;
12577;SDS011;6354;51.026;8.968;2023-03-23T07:26:30;1999.90;;;511.63;;
12577;SDS011;6354;51.026;8.968;2023-03-23T07:28:57;1999.90;;;319.63;;
12577;SDS011;6354;51.026;8.968;2023-03-23T07:31:24;1999.90;;;301.07;;
12577;SDS011;6354;51.026;8.968;2023-03-23T07:33:52;1775.47;;;206.50;;
12577;SDS011;6354;51.026;8.968;2023-03-23T07:36:20;1999.90;;;214.17;;
12577;SDS011;6354;51.026;8.968;2023-03-23T07:38:47;1798.50;;;209.00;;
12577;SDS011;6354;51.026;8.968;2023-03-23T07:41:15;1999.90;;;491.37;;
12577;SDS011;6354;51.026;8.968;2023-03-23T07:43:42;1999.90;;;315.07;;
12577;SDS011;6354;51.026;8.968;2023-03-23T07:46:09;1999.90;;;410.67;;
12577;SDS011;6354;51.026;8.968;2023-03-23T07:48:36;1999.90;;;518.80;;
12577;SDS011;6354;51.026;8.968;2023-03-23T07:51:04;1980.33;;;218.20;;
12577;SDS011;6354;51.026;8.968;2023-03-23T07:53:33;1999.90;;;393.00;;
12577;SDS011;6354;51.026;8.968;2023-03-23T07:56:00;1999.90;;;363.67;;
12577;SDS011;6354;51.026;8.968;2023-03-23T07:58:28;1999.90;;;674.87;;
12577;SDS011;6354;51.026;8.968;2023-03-23T08:00:55;1999.90;;;401.03;;
12577;SDS011;6354;51.026;8.968;2023-03-23T08:03:22;1699.10;;;201.97;;
12577;SDS011;6354;51.026;8.968;2023-03-23T08:05:51;1999.90;;;371.10;;
12577;SDS011;6354;51.026;8.968;2023-03-23T08:08:18;1296.43;;;159.83;;
12577;SDS011;6354;51.026;8.968;2023-03-23T08:10:46;1999.90;;;648.10;;
12577;SDS011;6354;51.026;8.968;2023-03-23T08:13:14;1999.90;;;354.53;;
12577;SDS011;6354;51.026;8.968;2023-03-23T08:15:41;1999.90;;;421.40;;
12577;SDS011;6354;51.026;8.968;2023-03-23T08:18:08;1999.90;;;450.73;;
12577;SDS011;6354;51.026;8.968;2023-03-23T08:20:35;1999.90;;;592.23;;
12577;SDS011;6354;51.026;8.968;2023-03-23T08:23:03;1999.90;;;263.67;;
12577;SDS011;6354;51.026;8.968;2023-03-23T08:25:31;1999.90;;;359.00;;
12577;SDS011;6354;51.026;8.968;2023-03-23T08:28:00;1708.93;;;200.50;;
12577;SDS011;6354;51.026;8.968;2023-03-23T08:30:27;1999.90;;;408.50;;
12577;SDS011;6354;51.026;8.968;2023-03-23T08:32:58;1999.90;;;252.73;;
12577;SDS011;6354;51.026;8.968;2023-03-23T08:35:26;1999.90;;;215.73;;
12577;SDS011;6354;51.026;8.968;2023-03-23T08:37:53;1999.90;;;436.50;;
12577;SDS011;6354;51.026;8.968;2023-03-23T08:40:21;1999.90;;;278.23;;
12577;SDS011;6354;51.026;8.968;2023-03-23T08:42:49;1999.90;;;348.33;;
12577;SDS011;6354;51.026;8.968;2023-03-23T08:45:19;1999.90;;;302.47;;
12577;SDS011;6354;51.026;8.968;2023-03-23T08:47:47;1999.90;;;371.73;;
12577;SDS011;6354;51.026;8.968;2023-03-23T08:50:17;1999.90;;;389.00;;
12577;SDS011;6354;51.026;8.968;2023-03-23T08:52:47;1999.90;;;660.60;;
12577;SDS011;6354;51.026;8.968;2023-03-23T08:55:15;1999.90;;;569.93;;
12577;SDS011;6354;51.026;8.968;2023-03-23T08:57:43;1999.90;;;427.47;;
12577;SDS011;6354;51.026;8.968;2023-03-23T09:00:11;1999.90;;;597.37;;
12577;SDS011;6354;51.026;8.968;2023-03-23T09:02:42;1999.90;;;326.27;;
12577;SDS011;6354;51.026;8.968;2023-03-23T09:05:10;1999.90;;;576.33;;
12577;SDS011;6354;51.026;8.968;2023-03-23T09:07:38;1999.90;;;408.07;;
12577;SDS011;6354;51.026;8.968;2023-03-23T09:10:05;1999.90;;;742.57;;
12577;SDS011;6354;51.026;8.968;2023-03-23T09:12:33;1999.90;;;536.63;;
12577;SDS011;6354;51.026;8.968;2023-03-23T09:15:00;1999.90;;;671.50;;
12577;SDS011;6354;51.026;8.968;2023-03-23T09:17:34;1999.90;;;748.83;;
12577;SDS011;6354;51.026;8.968;2023-03-23T09:20:07;1999.90;;;565.77;;
12577;SDS011;6354;51.026;8.968;2023-03-23T09:22:37;1999.90;;;655.93;;
12577;SDS011;6354;51.026;8.968;2023-03-23T09:25:05;1999.90;;;948.90;;
12577;SDS011;6354;51.026;8.968;2023-03-23T09:27:33;1999.90;;;824.00;;
12577;SDS011;6354;51.026;8.968;2023-03-23T09:30:02;1999.90;;;768.00;;
12577;SDS011;6354;51.026;8.968;2023-03-23T09:32:31;1999.90;;;754.20;;
12577;SDS011;6354;51.026;8.968;2023-03-23T09:34:59;1999.90;;;489.05;;
12577;SDS011;6354;51.026;8.968;2023-03-23T09:37:29;1999.90;;;532.33;;
12577;SDS011;6354;51.026;8.968;2023-03-23T09:39:56;1999.90;;;736.22;;
12577;SDS011;6354;51.026;8.968;2023-03-23T09:42:28;1999.90;;;674.28;;
12577;SDS011;6354;51.026;8.968;2023-03-23T09:45:08;1999.90;;;804.78;;
12577;SDS011;6354;51.026;8.968;2023-03-23T09:47:43;1999.90;;;724.47;;
12577;SDS011;6354;51.026;8.968;2023-03-23T09:50:16;1999.90;;;781.08;;
12577;SDS011;6354;51.026;8.968;2023-03-23T09:52:47;1999.90;;;814.42;;
12577;SDS011;6354;51.026;8.968;2023-03-23T09:55:18;1999.90;;;999.90;;
12577;SDS011;6354;51.026;8.968;2023-03-23T09:57:47;1999.90;;;652.72;;
12577;SDS011;6354;51.026;8.968;2023-03-23T10:00:22;1999.90;;;759.70;;
12577;SDS011;6354;51.026;8.968;2023-03-23T10:02:55;1999.90;;;779.67;;
12577;SDS011;6354;51.026;8.968;2023-03-23T10:05:31;1999.90;;;736.45;;
12577;SDS011;6354;51.026;8.968;2023-03-23T10:08:02;1999.90;;;982.28;;
12577;SDS011;6354;51.026;8.968;2023-03-23T10:10:36;1999.90;;;605.95;;
12577;SDS011;6354;51.026;8.968;2023-03-23T10:13:14;1999.90;;;764.77;;
12577;SDS011;6354;51.026;8.968;2023-03-23T10:15:48;1999.90;;;778.57;;
12577;SDS011;6354;51.026;8.968;2023-03-23T10:18:17;1999.90;;;513.30;;
12577;SDS011;6354;51.026;8.968;2023-03-23T10:20:51;1999.90;;;520.70;;
12577;SDS011;6354;51.026;8.968;2023-03-23T10:23:37;1999.90;;;759.00;;
12577;SDS011;6354;51.026;8.968;2023-03-23T10:26:24;1999.90;;;449.65;;
12577;SDS011;6354;51.026;8.968;2023-03-23T10:28:59;1999.90;;;393.20;;
12577;SDS011;6354;51.026;8.968;2023-03-23T10:31:36;1999.90;;;542.40;;
12577;SDS011;6354;51.026;8.968;2023-03-23T10:34:08;1999.90;;;625.20;;
12577;SDS011;6354;51.026;8.968;2023-03-23T10:36:48;1999.90;;;596.30;;
12577;SDS011;6354;51.026;8.968;2023-03-23T10:39:21;1999.90;;;359.03;;
12577;SDS011;6354;51.026;8.968;2023-03-23T10:41:50;1999.90;;;450.93;;
12577;SDS011;6354;51.026;8.968;2023-03-23T10:44:19;1999.90;;;492.20;;
12577;SDS011;6354;51.026;8.968;2023-03-23T10:46:48;1999.90;;;500.80;;
12577;SDS011;6354;51.026;8.968;2023-03-23T10:49:23;1999.90;;;673.10;;
12577;SDS011;6354;51.026;8.968;2023-03-23T10:51:58;1999.90;;;622.08;;
12577;SDS011;6354;51.026;8.968;2023-03-23T10:54:35;1999.90;;;923.15;;
12577;SDS011;6354;51.026;8.968;2023-03-23T10:57:12;1999.90;;;680.78;;
12577;SDS011;6354;51.026;8.968;2023-03-23T10:59:45;1999.90;;;942.70;;
12577;SDS011;6354;51.026;8.968;2023-03-23T11:02:13;1999.90;;;856.72;;
12577;SDS011;6354;51.026;8.968;2023-03-23T11:04:45;1999.90;;;848.70;;
12577;SDS011;6354;51.026;8.968;2023-03-23T11:07:26;1999.90;;;984.40;;
12577;SDS011;6354;51.026;8.968;2023-03-23T11:09:57;1999.90;;;642.95;;
12577;SDS011;6354;51.026;8.968;2023-03-23T11:12:34;1999.90;;;895.30;;
12577;SDS011;6354;51.026;8.968;2023-03-23T11:15:16;1999.90;;;818.10;;
12577;SDS011;6354;51.026;8.968;2023-03-23T11:17:58;1999.90;;;563.28;;
12577;SDS011;6354;51.026;8.968;2023-03-23T11:20:27;1999.90;;;999.90;;
12577;SDS011;6354;51.026;8.968;2023-03-23T11:22:56;1999.90;;;749.90;;
12577;SDS011;6354;51.026;8.968;2023-03-23T11:25:25;1999.90;;;881.95;;
12577;SDS011;6354;51.026;8.968;2023-03-23T11:27:52;1999.90;;;777.33;;
12577;SDS011;6354;51.026;8.968;2023-03-23T11:30:22;1999.90;;;626.60;;
12577;SDS011;6354;51.026;8.968;2023-03-23T11:32:52;1999.90;;;830.28;;
12577;SDS011;6354;51.026;8.968;2023-03-23T11:35:22;1999.90;;;952.03;;
12577;SDS011;6354;51.026;8.968;2023-03-23T11:37:52;1999.90;;;852.65;;
12577;SDS011;6354;51.026;8.968;2023-03-23T11:40:22;1999.90;;;787.58;;
12577;SDS011;6354;51.026;8.968;2023-03-23T11:42:58;1999.90;;;821.28;;
12577;SDS011;6354;51.026;8.968;2023-03-23T11:45:31;1999.90;;;998.95;;
12577;SDS011;6354;51.026;8.968;2023-03-23T11:48:03;1999.90;;;892.92;;
12577;SDS011;6354;51.026;8.968;2023-03-23T11:50:44;1999.90;;;892.80;;
12577;SDS011;6354;51.026;8.968;2023-03-23T11:53:17;1999.90;;;975.90;;
12577;SDS011;6354;51.026;8.968;2023-03-23T11:55:59;1999.90;;;846.90;;
12577;SDS011;6354;51.026;8.968;2023-03-23T11:58:34;1999.90;;;909.90;;
12577;SDS011;6354;51.026;8.968;2023-03-23T12:01:04;1999.90;;;998.13;;
12577;SDS011;6354;51.026;8.968;2023-03-23T12:03:49;1999.90;;;730.92;;
12577;SDS011;6354;51.026;8.968;2023-03-23T12:06:27;1999.90;;;527.70;;
12577;SDS011;6354;51.026;8.968;2023-03-23T12:09:06;1999.90;;;964.17;;
12577;SDS011;6354;51.026;8.968;2023-03-23T12:11:45;1999.90;;;568.20;;
12577;SDS011;6354;51.026;8.968;2023-03-23T12:14:21;1999.90;;;485.48;;
12577;SDS011;6354;51.026;8.968;2023-03-23T12:17:01;1999.90;;;924.50;;
12577;SDS011;6354;51.026;8.968;2023-03-23T12:19:41;1999.90;;;865.53;;
12577;SDS011;6354;51.026;8.968;2023-03-23T12:22:19;1999.90;;;648.28;;
12577;SDS011;6354;51.026;8.968;2023-03-23T12:24:59;1999.90;;;525.13;;
12577;SDS011;6354;51.026;8.968;2023-03-23T12:27:38;1999.90;;;803.07;;
12577;SDS011;6354;51.026;8.968;2023-03-23T12:30:19;1999.90;;;873.95;;
12577;SDS011;6354;51.026;8.968;2023-03-23T12:32:56;1999.90;;;394.23;;
12577;SDS011;6354;51.026;8.968;2023-03-23T12:35:33;1999.90;;;783.10;;
12577;SDS011;6354;51.026;8.968;2023-03-23T12:38:13;1999.90;;;619.67;;
12577;SDS011;6354;51.026;8.968;2023-03-23T12:40:52;1999.90;;;600.53;;
12577;SDS011;6354;51.026;8.968;2023-03-23T12:43:38;1999.90;;;482.83;;
12577;SDS011;6354;51.026;8.968;2023-03-23T12:46:24;1999.90;;;930.40;;
12577;SDS011;6354;51.026;8.968;2023-03-23T12:49:08;1999.90;;;569.43;;
12577;SDS011;6354;51.026;8.968;2023-03-23T12:51:42;1999.90;;;794.30;;
12577;SDS011;6354;51.026;8.968;2023-03-23T12:54:15;1999.90;;;515.50;;
12577;SDS011;6354;51.026;8.968;2023-03-23T12:56:54;1999.90;;;787.17;;
12577;SDS011;6354;51.026;8.968;2023-03-23T12:59:27;1999.90;;;892.30;;
12577;SDS011;6354;51.026;8.968;2023-03-23T13:02:03;1999.90;;;639.65;;
12577;SDS011;6354;51.026;8.968;2023-03-23T13:04:35;1999.90;;;850.20;;
12577;SDS011;6354;51.026;8.968;2023-03-23T13:07:05;1999.90;;;873.25;;
12577;SDS011;6354;51.026;8.968;2023-03-23T13:09:44;1999.90;;;698.60;;
12577;SDS011;6354;51.026;8.968;2023-03-23T13:12:16;1999.90;;;920.92;;
12577;SDS011;6354;51.026;8.968;2023-03-23T13:14:47;1999.90;;;914.80;;
12577;SDS011;6354;51.026;8.968;2023-03-23T13:17:26;1999.90;;;928.28;;
12577;SDS011;6354;51.026;8.968;2023-03-23T13:20:11;1999.90;;;876.30;;
12577;SDS011;6354;51.026;8.968;2023-03-23T13:22:47;1999.90;;;785.40;;
12577;SDS011;6354;51.026;8.968;2023-03-23T13:25:18;1999.90;;;870.33;;
12577;SDS011;6354;51.026;8.968;2023-03-23T13:27:56;1999.90;;;999.90;;
12577;SDS011;6354;51.026;8.968;2023-03-23T13:30:24;1999.90;;;523.10;;
12577;SDS011;6354;51.026;8.968;2023-03-23T13:33:02;1999.90;;;814.20;;
12577;SDS011;6354;51.026;8.968;2023-03-23T13:35:33;1999.90;;;799.97;;
12577;SDS011;6354;51.026;8.968;2023-03-23T13:38:10;1999.90;;;652.78;;
12577;SDS011;6354;51.026;8.968;2023-03-23T13:40:42;1999.90;;;672.38;;
12577;SDS011;6354;51.026;8.968;2023-03-23T13:43:11;1999.90;;;847.58;;
12577;SDS011;6354;51.026;8.968;2023-03-23T13:45:43;1999.90;;;721.85;;
12577;SDS011;6354;51.026;8.968;2023-03-23T13:48:21;1999.90;;;992.15;;
12577;SDS011;6354;51.026;8.968;2023-03-23T13:50:50;1999.90;;;830.17;;
12577;SDS011;6354;51.026;8.968;2023-03-23T13:53:23;1999.90;;;910.70;;
12577;SDS011;6354;51.026;8.968;2023-03-23T13:56:05;1999.90;;;846.95;;
12577;SDS011;6354;51.026;8.968;2023-03-23T13:58:43;1999.90;;;927.95;;
12577;SDS011;6354;51.026;8.968;2023-03-23T14:01:13;1999.90;;;977.67;;
12577;SDS011;6354;51.026;8.968;2023-03-23T14:03:45;1999.90;;;776.45;;
12577;SDS011;6354;51.026;8.968;2023-03-23T14:06:16;1999.90;;;809.78;;
12577;SDS011;6354;51.026;8.968;2023-03-23T14:08:47;1999.90;;;824.80;;
12577;SDS011;6354;51.026;8.968;2023-03-23T14:11:19;1999.90;;;659.40;;
12577;SDS011;6354;51.026;8.968;2023-03-23T14:13:58;1999.90;;;999.90;;
12577;SDS011;6354;51.026;8.968;2023-03-23T14:16:31;1999.90;;;856.50;;
12577;SDS011;6354;51.026;8.968;2023-03-23T14:19:03;1999.90;;;810.00;;
12577;SDS011;6354;51.026;8.968;2023-03-23T14:21:41;1999.90;;;879.22;;